createdAt,value
2019-04-03T00:00:57.504Z,61.60
2019-04-03T00:01:57.496Z,62.37
2019-04-03T00:02:57.490Z,62.55
2019-04-03T00:03:57.533Z,62.14
2019-04-03T00:04:57.470Z,62.37
2019-04-03T00:05:57.464Z,60.93
2019-04-03T00:06:57.456Z,61.19
2019-04-03T00:07:57.448Z,61.47
2019-04-03T00:08:57.438Z,61.19
2019-04-03T00:09:57.530Z,62.04
2019-04-03T00:10:57.425Z,61.38
2019-04-03T00:11:57.526Z,59.56
2019-04-03T00:12:57.409Z,58.51
2019-04-03T00:13:57.399Z,59.40
2019-04-03T00:14:57.408Z,59.30
2019-04-03T00:15:57.381Z,57.97
2019-04-03T00:16:57.373Z,56.72
2019-04-03T00:17:57.367Z,56.91
2019-04-03T00:18:57.358Z,57.87
2019-04-03T00:19:57.355Z,57.87
2019-04-03T00:20:57.340Z,55.38
2019-04-03T00:21:57.332Z,55.38
2019-04-03T00:22:57.363Z,54.33
2019-04-03T00:23:57.317Z,54.90
2019-04-03T00:24:57.308Z,55.86
2019-04-03T00:25:57.298Z,55.47
2019-04-03T00:26:57.294Z,57.10
2019-04-03T00:27:57.284Z,56.43
2019-04-03T00:28:57.272Z,55.00
2019-04-03T00:29:57.264Z,55.00
2019-04-03T00:30:57.259Z,55.19
2019-04-03T00:31:57.261Z,56.53
2019-04-03T00:32:57.240Z,54.90
2019-04-03T00:33:57.230Z,54.23
2019-04-03T00:34:57.233Z,53.37
2019-04-03T00:35:57.216Z,54.52
2019-04-03T00:36:57.208Z,53.56
2019-04-03T00:37:57.201Z,55.10
2019-04-03T00:38:57.191Z,55.57
2019-04-03T00:39:57.184Z,55.10
2019-04-03T00:40:57.172Z,53.75
2019-04-03T00:41:57.166Z,55.47
2019-04-03T00:42:57.153Z,54.52
2019-04-03T00:43:57.149Z,55.47
2019-04-03T00:44:57.242Z,57.77
2019-04-03T00:45:57.129Z,58.25
2019-04-03T00:46:57.123Z,58.63
2019-04-03T00:47:57.114Z,56.24
2019-04-03T00:48:57.186Z,56.91
2019-04-03T00:49:57.179Z,57.10
2019-04-03T00:50:57.627Z,55.96
2019-04-03T00:51:58.010Z,57.87
2019-04-03T00:52:57.411Z,57.39
2019-04-03T00:53:57.974Z,55.88
2019-04-03T00:54:57.158Z,56.82
2019-04-03T00:55:57.091Z,54.52
2019-04-03T00:56:57.092Z,54.52
2019-04-03T00:57:57.149Z,53.75
2019-04-03T00:58:57.018Z,54.71
2019-04-03T00:59:57.017Z,54.33
2019-04-03T01:00:57.005Z,55.76
2019-04-03T01:01:57.157Z,56.05
2019-04-03T01:02:58.992Z,54.61
2019-04-03T01:03:58.880Z,55.29
2019-04-03T01:04:58.350Z,54.71
2019-04-03T01:05:58.342Z,56.15
2019-04-03T01:06:58.639Z,55.76
2019-04-03T01:07:59.224Z,54.71
2019-04-03T01:08:57.739Z,55.57
2019-04-03T01:09:59.082Z,56.62
2019-04-03T01:10:56.926Z,56.15
2019-04-03T01:11:56.909Z,55.38
2019-04-03T01:12:56.983Z,55.67
2019-04-03T01:13:56.888Z,55.74
2019-04-03T01:14:56.884Z,56.40
2019-04-03T01:15:56.873Z,55.26
2019-04-03T01:16:56.919Z,55.07
2019-04-03T01:17:56.856Z,54.97
2019-04-03T01:18:56.850Z,55.26
2019-04-03T01:19:56.838Z,55.74
2019-04-03T01:20:56.830Z,56.60
2019-04-03T01:21:56.825Z,57.93
2019-04-03T01:22:56.813Z,55.74
2019-04-03T01:23:56.933Z,57.07
2019-04-03T01:24:56.796Z,55.26
2019-04-03T01:25:56.791Z,57.65
2019-04-03T01:26:56.780Z,57.46
2019-04-03T01:27:56.770Z,56.31
2019-04-03T01:28:56.763Z,56.40
2019-04-03T01:29:56.756Z,57.46
2019-04-03T01:30:56.793Z,57.84
2019-04-03T01:31:56.809Z,56.50
2019-04-03T01:32:56.729Z,57.93
2019-04-03T01:33:56.719Z,58.03
2019-04-03T01:34:56.809Z,57.84
2019-04-03T01:35:56.700Z,57.75
2019-04-03T01:36:56.735Z,58.51
2019-04-03T01:37:56.687Z,59.66
2019-04-03T01:38:56.677Z,58.12
2019-04-03T01:39:56.667Z,59.18
2019-04-03T01:40:56.663Z,60.33
2019-04-03T01:41:56.651Z,60.42
2019-04-03T01:42:56.644Z,60.71
2019-04-03T01:43:56.635Z,59.94
2019-04-03T01:44:56.626Z,61.38
2019-04-03T01:45:57.237Z,59.27
2019-04-03T01:46:57.763Z,58.80
2019-04-03T01:47:58.216Z,58.12
2019-04-03T01:48:58.037Z,59.27
2019-04-03T01:49:58.162Z,58.61
2019-04-03T01:50:59.176Z,60.33
2019-04-03T01:51:56.564Z,59.75
2019-04-03T01:52:56.555Z,60.90
2019-04-03T01:53:56.546Z,62.62
2019-04-03T01:54:56.535Z,61.38
2019-04-03T01:55:56.528Z,61.09
2019-04-03T01:56:56.521Z,60.90
2019-04-03T01:57:56.515Z,61.38
2019-04-03T01:58:56.501Z,60.80
2019-04-03T01:59:56.496Z,61.19
2019-04-03T02:00:56.484Z,60.87
2019-04-03T02:01:56.475Z,62.78
2019-04-03T02:02:56.468Z,61.76
2019-04-03T02:03:56.457Z,61.44
2019-04-03T02:04:56.536Z,61.82
2019-04-03T02:05:56.442Z,62.40
2019-04-03T02:06:56.485Z,63.07
2019-04-03T02:07:56.424Z,63.26
2019-04-03T02:08:56.414Z,63.73
2019-04-03T02:09:56.543Z,63.26
2019-04-03T02:10:56.396Z,63.35
2019-04-03T02:11:56.385Z,62.78
2019-04-03T02:12:56.376Z,62.87
2019-04-03T02:13:56.376Z,63.26
2019-04-03T02:14:56.360Z,63.73
2019-04-03T02:15:56.352Z,62.68
2019-04-03T02:16:56.357Z,63.07
2019-04-03T02:17:56.444Z,65.36
2019-04-03T02:18:56.324Z,64.40
2019-04-03T02:19:56.970Z,63.45
2019-04-03T02:20:57.681Z,65.26
2019-04-03T02:21:57.961Z,65.55
2019-04-03T02:22:56.291Z,64.12
2019-04-03T02:23:56.284Z,64.59
2019-04-03T02:24:56.268Z,66.03
2019-04-03T02:25:56.261Z,64.31
2019-04-03T02:26:56.251Z,64.22
2019-04-03T02:27:56.243Z,64.59
2019-04-03T02:28:56.275Z,64.31
2019-04-03T02:29:56.235Z,64.98
2019-04-03T02:30:56.219Z,64.69
2019-04-03T02:31:56.209Z,65.93
2019-04-03T02:32:57.319Z,66.31
2019-04-03T02:33:56.305Z,66.22
2019-04-03T02:34:56.227Z,65.36
2019-04-03T02:35:56.170Z,65.36
2019-04-03T02:36:56.162Z,68.04
2019-04-03T02:37:56.157Z,68.04
2019-04-03T02:38:56.213Z,66.70
2019-04-03T02:39:59.109Z,68.80
2019-04-03T02:40:56.127Z,66.31
2019-04-03T02:41:56.229Z,68.61
2019-04-03T02:42:56.112Z,66.22
2019-04-03T02:43:56.123Z,66.13
2019-04-03T02:44:56.360Z,66.60
2019-04-03T02:45:57.284Z,67.18
2019-04-03T02:46:59.517Z,67.18
2019-04-03T02:47:56.065Z,67.65
2019-04-03T02:48:56.056Z,66.99
2019-04-03T02:49:56.062Z,68.04
2019-04-03T02:50:56.331Z,67.65
2019-04-03T02:51:56.035Z,68.13
2019-04-03T02:52:58.155Z,68.04
2019-04-03T02:53:56.010Z,67.94
2019-04-03T02:54:56.003Z,68.51
2019-04-03T02:55:55.999Z,68.70
2019-04-03T02:56:55.980Z,68.80
2019-04-03T02:57:56.113Z,68.90
2019-04-03T02:58:55.964Z,67.94
2019-04-03T02:59:58.791Z,68.29
2019-04-03T03:00:55.948Z,68.67
2019-04-03T03:01:56.221Z,68.57
2019-04-03T03:02:56.067Z,68.76
2019-04-03T03:03:55.924Z,69.24
2019-04-03T03:04:55.908Z,68.76
2019-04-03T03:05:59.299Z,69.24
2019-04-03T03:06:56.008Z,70.01
2019-04-03T03:07:55.881Z,70.87
2019-04-03T03:08:55.875Z,70.20
2019-04-03T03:09:56.013Z,71.44
2019-04-03T03:10:55.873Z,70.01
2019-04-03T03:11:56.952Z,70.58
2019-04-03T03:13:00.208Z,70.77
2019-04-03T03:13:55.826Z,70.20
2019-04-03T03:14:55.990Z,69.15
2019-04-03T03:15:55.808Z,70.29
2019-04-03T03:16:55.799Z,71.44
2019-04-03T03:17:56.307Z,70.58
2019-04-03T03:18:59.988Z,72.01
2019-04-03T03:19:55.861Z,73.07
2019-04-03T03:20:55.755Z,72.20
2019-04-03T03:21:55.851Z,71.53
2019-04-03T03:22:55.742Z,72.11
2019-04-03T03:23:57.191Z,72.30
2019-04-03T03:24:55.719Z,71.63
2019-04-03T03:25:55.717Z,72.97
2019-04-03T03:26:56.008Z,72.64
2019-04-03T03:27:55.692Z,73.63
2019-04-03T03:28:55.694Z,72.64
2019-04-03T03:29:58.441Z,73.32
2019-04-03T03:31:01.588Z,73.79
2019-04-03T03:32:08.044Z,73.60
2019-04-03T03:33:21.723Z,73.69
2019-04-03T03:34:00.952Z,73.98
2019-04-03T03:35:07.435Z,74.84
2019-04-03T03:35:56.263Z,74.46
2019-04-03T03:37:00.072Z,73.98
2019-04-03T03:37:55.597Z,74.37
2019-04-03T03:38:55.586Z,74.55
2019-04-03T03:39:55.581Z,74.55
2019-04-03T03:40:55.565Z,75.98
2019-04-03T03:41:57.540Z,76.27
2019-04-03T03:42:55.557Z,75.13
2019-04-03T03:43:55.537Z,75.70
2019-04-03T03:44:55.531Z,74.74
2019-04-03T03:45:55.712Z,75.42
2019-04-03T03:46:59.838Z,76.37
2019-04-03T03:47:55.501Z,75.22
2019-04-03T03:48:55.489Z,74.55
2019-04-03T03:49:55.484Z,75.42
2019-04-03T03:50:57.252Z,75.70
2019-04-03T03:51:55.461Z,75.60
2019-04-03T03:52:55.449Z,75.76
2019-04-03T03:53:55.712Z,76.33
2019-04-03T03:54:55.451Z,76.90
2019-04-03T03:55:58.418Z,76.33
2019-04-03T03:56:55.413Z,76.14
2019-04-03T03:57:55.403Z,76.71
2019-04-03T03:58:55.565Z,77.28
2019-04-03T03:59:55.381Z,76.81
2019-04-03T04:00:58.786Z,76.62
2019-04-03T04:01:55.371Z,76.81
2019-04-03T04:02:55.398Z,76.81
2019-04-03T04:03:55.563Z,76.81
2019-04-03T04:04:55.339Z,76.71
2019-04-03T04:05:56.664Z,77.38
2019-04-03T04:06:55.313Z,77.38
2019-04-03T04:07:55.659Z,77.47
2019-04-03T04:08:55.298Z,77.47
2019-04-03T04:09:55.303Z,78.43
2019-04-03T04:10:58.020Z,77.19
2019-04-03T04:11:55.515Z,77.76
2019-04-03T04:12:55.262Z,78.23
2019-04-03T04:13:55.246Z,78.33
2019-04-03T04:14:57.035Z,78.05
2019-04-03T04:15:55.227Z,78.33
2019-04-03T04:16:55.490Z,78.72
2019-04-03T04:17:55.230Z,78.81
2019-04-03T04:18:56.994Z,77.95
2019-04-03T04:19:55.188Z,77.57
2019-04-03T04:20:55.193Z,77.86
2019-04-03T04:21:55.168Z,78.72
2019-04-03T04:22:55.193Z,78.23
2019-04-03T04:23:55.975Z,77.95
2019-04-03T04:24:55.369Z,78.33
2019-04-03T04:25:55.132Z,78.52
2019-04-03T04:26:55.182Z,78.33
2019-04-03T04:27:55.114Z,78.39
2019-04-03T04:28:55.097Z,78.72
2019-04-03T04:29:55.088Z,79.25
2019-04-03T04:30:55.150Z,79.72
2019-04-03T04:31:55.067Z,80.05
2019-04-03T04:32:55.060Z,79.48
2019-04-03T04:33:55.134Z,79.86
2019-04-03T04:34:55.041Z,79.77
2019-04-03T04:35:55.034Z,80.91
2019-04-03T04:36:56.066Z,79.91
2019-04-03T04:37:55.960Z,80.20
2019-04-03T04:38:55.846Z,79.96
2019-04-03T04:39:54.994Z,80.01
2019-04-03T04:40:54.984Z,79.63
2019-04-03T04:41:54.978Z,79.72
2019-04-03T04:42:54.966Z,80.68
2019-04-03T04:43:54.960Z,79.91
2019-04-03T04:44:54.943Z,79.91
2019-04-03T04:45:55.186Z,79.91
2019-04-03T04:46:54.942Z,80.30
2019-04-03T04:47:54.916Z,80.53
2019-04-03T04:48:54.905Z,80.20
2019-04-03T04:49:54.909Z,80.49
2019-04-03T04:50:55.509Z,80.49
2019-04-03T04:51:56.647Z,80.15
2019-04-03T04:52:54.872Z,80.30
2019-04-03T04:53:54.850Z,80.39
2019-04-03T04:54:54.845Z,80.11
2019-04-03T04:55:54.831Z,80.68
2019-04-03T04:56:55.030Z,80.39
2019-04-03T04:57:54.825Z,80.30
2019-04-03T04:58:54.805Z,81.15
2019-04-03T04:59:54.792Z,80.68
2019-04-03T05:00:54.786Z,80.68
2019-04-03T05:01:54.773Z,79.82
2019-04-03T05:02:54.767Z,80.39
2019-04-03T05:03:54.919Z,81.06
2019-04-03T05:04:55.791Z,80.68
2019-04-03T05:05:57.252Z,80.49
2019-04-03T05:06:55.024Z,80.77
2019-04-03T05:07:55.000Z,81.15
2019-04-03T05:08:54.706Z,81.06
2019-04-03T05:09:54.706Z,80.87
2019-04-03T05:10:54.693Z,81.63
2019-04-03T05:11:54.675Z,81.63
2019-04-03T05:12:54.666Z,81.63
2019-04-03T05:13:54.658Z,81.73
2019-04-03T05:14:54.649Z,81.44
2019-04-03T05:15:54.869Z,81.73
2019-04-03T05:16:55.921Z,81.92
2019-04-03T05:17:55.801Z,81.63
2019-04-03T05:18:54.781Z,81.82
2019-04-03T05:19:54.599Z,82.01
2019-04-03T05:20:54.585Z,82.11
2019-04-03T05:21:54.579Z,81.92
2019-04-03T05:22:55.376Z,81.92
2019-04-03T05:23:56.101Z,82.68
2019-04-03T05:24:54.552Z,82.87
2019-04-03T05:25:54.549Z,81.92
2019-04-03T05:26:54.528Z,81.92
2019-04-03T05:27:54.517Z,82.01
2019-04-03T05:28:57.465Z,82.59
2019-04-03T05:29:54.690Z,82.30
2019-04-03T05:30:54.489Z,82.20
2019-04-03T05:31:54.487Z,81.73
2019-04-03T05:32:54.496Z,81.73
2019-04-03T05:33:54.460Z,81.63
2019-04-03T05:34:54.447Z,81.63
2019-04-03T05:35:54.510Z,81.73
2019-04-03T05:36:54.428Z,81.44
2019-04-03T05:37:54.534Z,82.40
2019-04-03T05:38:54.410Z,82.97
2019-04-03T05:39:55.608Z,81.92
2019-04-03T05:40:54.691Z,81.73
2019-04-03T05:41:54.596Z,80.87
2019-04-03T05:42:54.372Z,81.06
2019-04-03T05:43:54.381Z,81.63
2019-04-03T05:44:54.349Z,81.15
2019-04-03T05:45:54.342Z,80.58
2019-04-03T05:46:54.354Z,80.39
2019-04-03T05:47:54.328Z,80.43
2019-04-03T05:48:54.441Z,80.81
2019-04-03T05:49:56.110Z,80.43
2019-04-03T05:50:54.293Z,80.05
2019-04-03T05:51:54.620Z,80.24
2019-04-03T05:52:54.275Z,79.48
2019-04-03T05:53:54.615Z,79.67
2019-04-03T05:54:54.358Z,79.67
2019-04-03T05:55:54.246Z,79.28
2019-04-03T05:56:54.251Z,79.00
2019-04-03T05:57:54.227Z,79.28
2019-04-03T05:58:56.942Z,78.72
2019-04-03T06:00:00.805Z,78.62
2019-04-03T06:01:04.163Z,78.62
2019-04-03T06:01:54.189Z,78.52
2019-04-03T06:02:56.914Z,79.00
2019-04-03T06:03:54.247Z,79.00
2019-04-03T06:04:54.197Z,79.10
2019-04-03T06:05:57.218Z,79.48
2019-04-03T06:06:54.136Z,79.48
2019-04-03T06:07:54.127Z,78.81
2019-04-03T06:08:56.439Z,79.48
2019-04-03T06:09:58.265Z,78.62
2019-04-03T06:10:54.124Z,79.10
2019-04-03T06:11:54.092Z,79.19
2019-04-03T06:12:54.079Z,78.91
2019-04-03T06:13:54.099Z,77.86
2019-04-03T06:14:54.263Z,78.05
2019-04-03T06:15:54.166Z,78.52
2019-04-03T06:16:56.093Z,78.05
2019-04-03T06:17:55.280Z,78.62
2019-04-03T06:18:54.221Z,79.38
2019-04-03T06:19:54.209Z,78.81
2019-04-03T06:20:54.005Z,77.86
2019-04-03T06:21:53.997Z,77.95
2019-04-03T06:22:54.128Z,77.80
2019-04-03T06:23:54.035Z,77.61
2019-04-03T06:24:56.017Z,77.51
2019-04-03T06:25:53.957Z,77.03
2019-04-03T06:26:53.949Z,76.84
2019-04-03T06:27:53.936Z,76.18
2019-04-03T06:28:54.007Z,76.37
2019-04-03T06:29:55.209Z,76.37
2019-04-03T06:30:55.492Z,76.27
2019-04-03T06:31:53.899Z,75.83
2019-04-03T06:32:54.935Z,76.50
2019-04-03T06:33:53.881Z,74.88
2019-04-03T06:34:53.870Z,74.49
2019-04-03T06:35:54.126Z,73.63
2019-04-03T06:36:53.859Z,73.63
2019-04-03T06:37:53.843Z,73.44
2019-04-03T06:38:54.284Z,73.83
2019-04-03T06:39:53.825Z,73.54
2019-04-03T06:40:53.952Z,72.78
2019-04-03T06:41:53.823Z,72.62
2019-04-03T06:42:53.799Z,73.96
2019-04-03T06:43:54.516Z,72.81
2019-04-03T06:44:54.110Z,72.91
2019-04-03T06:45:55.336Z,72.78
2019-04-03T06:46:54.934Z,73.39
2019-04-03T06:47:53.753Z,73.86
2019-04-03T06:48:55.268Z,74.44
2019-04-03T06:49:53.736Z,72.97
2019-04-03T06:50:53.728Z,72.97
2019-04-03T06:51:53.714Z,73.77
2019-04-03T06:52:53.815Z,72.05
2019-04-03T06:53:53.699Z,72.87
2019-04-03T06:54:53.687Z,72.24
2019-04-03T06:55:53.682Z,72.91
2019-04-03T06:56:53.670Z,72.78
2019-04-03T06:57:53.658Z,74.05
2019-04-03T06:58:53.879Z,73.39
2019-04-03T06:59:53.645Z,72.14
2019-04-03T07:00:54.715Z,72.43
2019-04-03T07:01:53.701Z,72.24
2019-04-03T07:02:53.620Z,71.86
2019-04-03T07:03:53.626Z,71.95
2019-04-03T07:04:53.600Z,72.14
2019-04-03T07:05:53.586Z,72.43
2019-04-03T07:06:55.710Z,73.96
2019-04-03T07:07:53.571Z,72.81
2019-04-03T07:08:53.919Z,72.53
2019-04-03T07:09:53.550Z,72.91
2019-04-03T07:10:55.378Z,73.19
2019-04-03T07:11:53.534Z,72.24
2019-04-03T07:12:53.525Z,73.58
2019-04-03T07:13:54.411Z,72.72
2019-04-03T07:14:53.509Z,72.81
2019-04-03T07:15:55.950Z,72.91
2019-04-03T07:16:53.518Z,72.91
2019-04-03T07:17:53.597Z,74.44
2019-04-03T07:18:53.477Z,73.67
2019-04-03T07:19:53.468Z,73.19
2019-04-03T07:20:53.452Z,73.48
2019-04-03T07:21:55.211Z,73.67
2019-04-03T07:22:53.434Z,73.19
2019-04-03T07:23:53.424Z,74.82
2019-04-03T07:24:53.415Z,72.72
2019-04-03T07:25:53.406Z,73.77
2019-04-03T07:26:53.400Z,72.72
2019-04-03T07:27:53.391Z,71.99
2019-04-03T07:28:53.379Z,72.24
2019-04-03T07:29:53.376Z,73.23
2019-04-03T07:30:54.015Z,72.85
2019-04-03T07:31:55.180Z,73.04
2019-04-03T07:32:53.457Z,73.80
2019-04-03T07:33:53.338Z,72.94
2019-04-03T07:34:53.388Z,72.37
2019-04-03T07:35:53.433Z,70.65
2019-04-03T07:36:53.308Z,72.08
2019-04-03T07:37:53.301Z,71.32
2019-04-03T07:38:53.372Z,70.07
2019-04-03T07:39:53.287Z,70.11
2019-04-03T07:40:53.277Z,69.92
2019-04-03T07:41:54.413Z,70.40
2019-04-03T07:42:55.635Z,70.40
2019-04-03T07:43:53.247Z,70.30
2019-04-03T07:44:53.241Z,69.06
2019-04-03T07:45:53.230Z,68.87
2019-04-03T07:46:54.877Z,68.58
2019-04-03T07:47:53.467Z,68.39
2019-04-03T07:48:53.215Z,68.71
2019-04-03T07:49:53.199Z,68.23
2019-04-03T07:50:53.188Z,67.91
2019-04-03T07:51:53.180Z,68.01
2019-04-03T07:52:53.174Z,68.23
2019-04-03T07:53:53.167Z,67.37
2019-04-03T07:54:56.456Z,67.85
2019-04-03T07:55:54.865Z,67.56
2019-04-03T07:56:53.147Z,66.13
2019-04-03T07:57:53.133Z,65.88
2019-04-03T07:58:53.588Z,65.78
2019-04-03T07:59:53.120Z,66.54
2019-04-03T08:00:53.111Z,64.92
2019-04-03T08:01:53.106Z,64.25
2019-04-03T08:02:53.095Z,64.53
2019-04-03T08:03:53.425Z,64.15
2019-04-03T08:04:54.213Z,64.82
2019-04-03T08:05:56.021Z,64.43
2019-04-03T08:06:53.491Z,63.39
2019-04-03T08:07:53.057Z,62.71
2019-04-03T08:09:06.989Z,63.19
2019-04-03T08:09:53.039Z,63.67
2019-04-03T08:10:53.032Z,63.67
2019-04-03T08:11:53.026Z,63.86
2019-04-03T08:12:53.137Z,64.25
2019-04-03T08:13:53.008Z,64.34
2019-04-03T08:14:53.000Z,64.15
2019-04-03T08:15:52.996Z,62.84
2019-04-03T08:16:52.985Z,62.46
2019-04-03T08:17:52.981Z,63.70
2019-04-03T08:18:52.976Z,63.70
2019-04-03T08:19:54.388Z,63.42
2019-04-03T08:20:53.327Z,63.42
2019-04-03T08:21:52.944Z,62.87
2019-04-03T08:22:52.938Z,62.49
2019-04-03T08:23:52.931Z,62.30
2019-04-03T08:24:53.818Z,61.50
2019-04-03T08:25:54.286Z,60.54
2019-04-03T08:26:52.909Z,60.76
2019-04-03T08:27:55.324Z,60.76
2019-04-03T08:28:52.895Z,61.53
2019-04-03T08:29:53.066Z,61.72
2019-04-03T08:30:52.882Z,61.53
2019-04-03T08:31:52.876Z,61.34
2019-04-03T08:32:52.866Z,60.19
2019-04-03T08:33:52.863Z,59.77
2019-04-03T08:34:52.854Z,60.89
2019-04-03T08:35:53.037Z,62.81
2019-04-03T08:36:53.195Z,63.10
2019-04-03T08:37:52.837Z,63.86
2019-04-03T08:38:53.040Z,64.05
2019-04-03T08:39:53.195Z,62.65
2019-04-03T08:40:53.517Z,61.50
2019-04-03T08:41:55.298Z,60.83
2019-04-03T08:42:52.798Z,60.83
2019-04-03T08:43:52.811Z,61.24
2019-04-03T08:44:52.782Z,61.15
2019-04-03T08:45:52.850Z,60.67
2019-04-03T08:46:52.994Z,59.71
2019-04-03T08:47:52.763Z,59.61
2019-04-03T08:48:55.103Z,60.76
2019-04-03T08:49:52.747Z,59.33
2019-04-03T08:50:52.741Z,59.74
2019-04-03T08:51:52.732Z,59.23
2019-04-03T08:52:52.726Z,59.13
2019-04-03T08:53:54.454Z,58.94
2019-04-03T08:54:52.715Z,59.71
2019-04-03T08:55:54.133Z,60.96
2019-04-03T08:56:52.698Z,59.71
2019-04-03T08:57:53.260Z,60.22
2019-04-03T08:58:52.687Z,58.37
2019-04-03T08:59:52.833Z,58.08
2019-04-03T09:00:52.672Z,59.33
2019-04-03T09:01:55.129Z,59.06
2019-04-03T09:02:52.658Z,59.36
2019-04-03T09:03:52.651Z,59.64
2019-04-03T09:04:52.938Z,58.59
2019-04-03T09:05:55.624Z,57.46
2019-04-03T09:06:54.108Z,57.92
2019-04-03T09:07:55.370Z,57.43
2019-04-03T09:08:52.615Z,57.46
2019-04-03T09:09:52.609Z,57.37
2019-04-03T09:10:52.601Z,58.14
2019-04-03T09:11:52.595Z,58.39
2019-04-03T09:12:52.589Z,57.37
2019-04-03T09:13:54.696Z,57.31
2019-04-03T09:14:52.584Z,58.08
2019-04-03T09:15:52.569Z,58.94
2019-04-03T09:16:52.917Z,60.76
2019-04-03T09:17:52.558Z,60.28
2019-04-03T09:18:52.547Z,59.36
2019-04-03T09:19:52.544Z,59.93
2019-04-03T09:20:52.539Z,60.50
2019-04-03T09:21:52.529Z,58.49
2019-04-03T09:22:53.638Z,59.29
2019-04-03T09:23:52.559Z,58.39
2019-04-03T09:24:52.515Z,59.16
2019-04-03T09:25:52.505Z,58.39
2019-04-03T09:26:52.501Z,58.78
2019-04-03T09:27:52.492Z,57.72
2019-04-03T09:28:52.482Z,58.30
2019-04-03T09:29:52.780Z,59.83
2019-04-03T09:30:54.074Z,58.97
2019-04-03T09:31:55.515Z,58.39
2019-04-03T09:32:53.659Z,57.46
2019-04-03T09:33:52.509Z,57.46
2019-04-03T09:34:52.573Z,58.52
2019-04-03T09:35:52.440Z,57.34
2019-04-03T09:36:52.430Z,57.95
2019-04-03T09:37:52.426Z,60.22
2019-04-03T09:38:52.417Z,61.28
2019-04-03T09:39:52.663Z,61.57
2019-04-03T09:40:52.675Z,62.33
2019-04-03T09:41:52.400Z,63.19
2019-04-03T09:42:52.393Z,62.04
2019-04-03T09:43:54.523Z,61.60
2019-04-03T09:44:55.148Z,62.46
2019-04-03T09:45:52.370Z,63.26
2019-04-03T09:46:52.362Z,61.05
2019-04-03T09:47:52.359Z,60.76
2019-04-03T09:48:52.352Z,60.03
2019-04-03T09:49:52.342Z,58.97
2019-04-03T09:50:52.337Z,58.42
2019-04-03T09:51:53.092Z,57.65
2019-04-03T09:52:54.236Z,56.70
2019-04-03T09:53:52.506Z,55.55
2019-04-03T09:54:52.310Z,55.74
2019-04-03T09:55:52.462Z,56.41
2019-04-03T09:57:03.039Z,56.63
2019-04-03T09:57:53.282Z,55.19
2019-04-03T09:58:55.408Z,55.47
2019-04-03T09:59:52.600Z,54.61
2019-04-03T10:00:52.280Z,53.56
2019-04-03T10:01:52.430Z,53.66
2019-04-03T10:02:52.259Z,53.05
2019-04-03T10:03:55.310Z,53.53
2019-04-03T10:04:52.247Z,55.42
2019-04-03T10:05:52.239Z,56.38
2019-04-03T10:06:52.232Z,57.53
2019-04-03T10:07:52.461Z,57.63
2019-04-03T10:08:52.474Z,56.76
2019-04-03T10:09:53.997Z,56.57
2019-04-03T10:10:52.252Z,55.55
2019-04-03T10:11:52.652Z,56.60
2019-04-03T10:12:54.214Z,56.51
2019-04-03T10:13:52.189Z,55.45
2019-04-03T10:14:52.184Z,56.48
2019-04-03T10:15:52.178Z,55.74
2019-04-03T10:16:52.169Z,56.41
2019-04-03T10:17:52.168Z,56.41
2019-04-03T10:18:52.496Z,56.60
2019-04-03T10:19:52.339Z,54.30
2019-04-03T10:20:52.142Z,54.39
2019-04-03T10:21:53.428Z,56.67
2019-04-03T10:22:52.130Z,56.38
2019-04-03T10:23:52.381Z,56.29
2019-04-03T10:24:52.124Z,55.97
2019-04-03T10:25:53.266Z,57.60
2019-04-03T10:26:52.117Z,58.11
2019-04-03T10:27:52.197Z,57.24
2019-04-03T10:28:52.096Z,56.76
2019-04-03T10:29:55.020Z,54.88
2019-04-03T10:30:53.456Z,55.74
2019-04-03T10:31:54.955Z,55.16
2019-04-03T10:32:52.070Z,54.33
2019-04-03T10:33:52.062Z,53.68
2019-04-03T10:34:52.313Z,53.20
2019-04-03T10:35:52.051Z,52.34
2019-04-03T10:36:52.046Z,52.46
2019-04-03T10:37:52.038Z,51.69
2019-04-03T10:38:52.034Z,51.98
2019-04-03T10:39:53.070Z,51.88
2019-04-03T10:40:52.021Z,51.98
2019-04-03T10:41:52.014Z,51.04
2019-04-03T10:42:52.010Z,49.60
2019-04-03T10:43:52.241Z,50.15
2019-04-03T10:44:52.235Z,51.40
2019-04-03T10:45:51.993Z,51.69
2019-04-03T10:46:51.986Z,51.98
2019-04-03T10:47:51.990Z,50.76
2019-04-03T10:48:51.983Z,49.38
2019-04-03T10:49:51.968Z,51.45
2019-04-03T10:50:51.964Z,54.64
2019-04-03T10:51:51.960Z,53.11
2019-04-03T10:52:52.073Z,52.91
2019-04-03T10:53:52.515Z,52.62
2019-04-03T10:54:51.941Z,52.24
2019-04-03T10:55:51.936Z,53.11
2019-04-03T10:56:52.105Z,52.46
2019-04-03T10:57:51.923Z,50.63
2019-04-03T10:58:51.919Z,50.23
2019-04-03T10:59:54.441Z,51.28
2019-04-03T11:00:52.601Z,53.01
2019-04-03T11:01:52.333Z,52.81
2019-04-03T11:02:51.896Z,52.84
2019-04-03T11:03:52.025Z,51.02
2019-04-03T11:04:51.884Z,50.25
2019-04-03T11:05:51.879Z,49.87
2019-04-03T11:06:51.875Z,50.92
2019-04-03T11:07:51.870Z,50.56
2019-04-03T11:08:52.093Z,49.89
2019-04-03T11:09:51.967Z,47.87
2019-04-03T11:10:51.853Z,48.33
2019-04-03T11:11:51.850Z,49.19
2019-04-03T11:12:51.926Z,49.10
2019-04-03T11:13:51.939Z,50.05
2019-04-03T11:14:51.829Z,50.73
2019-04-03T11:15:52.026Z,49.48
2019-04-03T11:16:51.822Z,49.67
2019-04-03T11:17:51.813Z,48.54
2019-04-03T11:18:58.576Z,45.85
2019-04-03T11:19:51.802Z,48.64
2019-04-03T11:20:52.101Z,47.68
2019-04-03T11:21:51.877Z,47.56
2019-04-03T11:23:04.032Z,48.33
2019-04-03T11:23:51.782Z,48.13
2019-04-03T11:24:51.910Z,49.29
2019-04-03T11:25:51.773Z,49.19
2019-04-03T11:26:52.520Z,48.71
2019-04-03T11:27:51.858Z,48.23
2019-04-03T11:28:51.777Z,47.94
2019-04-03T11:29:51.754Z,48.13
2019-04-03T11:30:53.022Z,49.19
2019-04-03T11:31:51.740Z,49.60
2019-04-03T11:32:51.740Z,48.04
2019-04-03T11:33:51.768Z,50.05
2019-04-03T11:34:53.769Z,54.19
2019-04-03T11:35:53.678Z,56.76
2019-04-03T11:36:52.137Z,57.90
2019-04-03T11:37:51.784Z,57.81
2019-04-03T11:38:51.701Z,58.10
2019-04-03T11:40:01.999Z,58.64
2019-04-03T11:40:51.697Z,58.94
2019-04-03T11:41:54.513Z,58.45
2019-04-03T11:42:51.681Z,58.62
2019-04-03T11:43:51.676Z,59.38
2019-04-03T11:44:51.674Z,60.60
2019-04-03T11:45:51.665Z,61.46
2019-04-03T11:46:51.659Z,61.15
2019-04-03T11:47:51.658Z,62.33
2019-04-03T11:48:51.647Z,63.13
2019-04-03T11:49:52.479Z,64.47
2019-04-03T11:50:51.634Z,64.89
2019-04-03T11:51:51.890Z,65.52
2019-04-03T11:52:52.258Z,65.52
2019-04-03T11:53:51.618Z,66.29
2019-04-03T11:54:53.006Z,65.58
2019-04-03T11:55:51.959Z,67.11
2019-04-03T11:56:51.597Z,66.83
2019-04-03T11:57:51.590Z,66.93
2019-04-03T11:58:52.034Z,66.77
2019-04-03T11:59:53.003Z,65.52
2019-04-03T12:00:51.571Z,64.76
2019-04-03T12:01:51.568Z,64.59
2019-04-03T12:02:51.557Z,64.98
2019-04-03T12:03:51.676Z,64.22
2019-04-03T12:04:51.542Z,64.59
2019-04-03T12:05:51.538Z,63.92
2019-04-03T12:06:52.323Z,64.02
2019-04-03T12:07:51.525Z,64.31
2019-04-03T12:08:51.511Z,63.60
2019-04-03T12:09:51.780Z,63.99
2019-04-03T12:10:51.826Z,64.18
2019-04-03T12:11:54.240Z,64.28
2019-04-03T12:12:51.486Z,64.22
2019-04-03T12:13:51.777Z,63.73
2019-04-03T12:14:51.474Z,63.83
2019-04-03T12:15:53.543Z,63.06
2019-04-03T12:16:51.456Z,62.49
2019-04-03T12:17:51.449Z,62.59
2019-04-03T12:18:51.683Z,62.77
2019-04-03T12:19:51.437Z,62.77
2019-04-03T12:20:51.430Z,62.49
2019-04-03T12:21:51.429Z,62.59
2019-04-03T12:22:52.039Z,62.77
2019-04-03T12:23:51.721Z,62.46
2019-04-03T12:24:51.773Z,63.89
2019-04-03T12:25:51.595Z,62.93
2019-04-03T12:26:52.551Z,63.13
2019-04-03T12:27:51.380Z,63.06
2019-04-03T12:28:51.602Z,62.77
2019-04-03T12:29:53.877Z,62.68
2019-04-03T12:30:51.361Z,62.30
2019-04-03T12:31:51.354Z,61.72
2019-04-03T12:32:51.355Z,61.27
2019-04-03T12:33:54.812Z,61.15
2019-04-03T12:34:51.332Z,60.76
2019-04-03T12:35:51.717Z,60.93
2019-04-03T12:36:51.513Z,61.50
2019-04-03T12:37:51.319Z,63.10
2019-04-03T12:38:55.063Z,63.22
2019-04-03T12:39:51.296Z,62.55
2019-04-03T12:40:51.288Z,61.66
2019-04-03T12:41:51.405Z,62.62
2019-04-03T12:42:51.275Z,62.52
2019-04-03T12:43:51.337Z,63.03
2019-04-03T12:44:52.099Z,61.50
2019-04-03T12:45:51.257Z,61.31
2019-04-03T12:46:51.527Z,61.79
2019-04-03T12:47:51.401Z,60.57
2019-04-03T12:48:51.373Z,59.48
2019-04-03T12:49:53.393Z,60.06
2019-04-03T12:50:51.215Z,60.83
2019-04-03T12:51:51.211Z,60.73
2019-04-03T12:52:51.197Z,59.97